Time;durP1;ratioP1;P1;durP2;ratioP2;P2;SDS_P1;SDS_P2;PMS_P1;PMS_P2;Temp;Humidity;BMP_temperature;BMP_pressure;BME280_temperature;BME280_humidity;BME280_pressure;Samples;Min_cycle;Max_cycle;Signal;HPM_P1;HPM_P2
2023/04/23 00:01:26;;;;;;;0.00;0.00;;;12.90;99.90;;;13.18;100.00;99900.97;5008702;28;20333;-78
2023/04/23 00:03:57;;;;;;;0.38;0.38;;;13.00;99.90;;;13.24;100.00;99898.25;5012495;28;20286;-78
2023/04/23 00:06:29;;;;;;;0.10;0.10;;;;;;;13.21;100.00;99898.28;5006349;28;20239;-78
2023/04/23 00:08:59;;;;;;;0.20;0.20;;;13.00;99.90;;;13.22;100.00;99900.03;5007747;28;20263;-77
2023/04/23 00:11:27;;;;;;;0.00;0.00;;;13.00;99.90;;;13.19;100.00;99897.41;5013292;28;20235;-77
2023/04/23 00:13:55;;;;;;;0.10;0.10;;;;;;;13.20;100.00;99903.59;5005369;28;20228;-78
2023/04/23 00:16:23;;;;;;;0.10;0.10;;;;;;;13.17;100.00;99908.94;5012159;28;20263;-77
2023/04/23 00:18:51;;;;;;;0.10;0.10;;;;;;;13.14;100.00;99909.81;5011949;28;20231;-78
2023/04/23 00:21:18;;;;;;;0.10;0.10;;;;;;;13.14;100.00;99916.03;5012096;28;20259;-77
2023/04/23 00:23:45;;;;;;;0.10;0.10;;;12.90;99.90;;;13.13;100.00;99926.66;5012539;28;20289;-78
2023/04/23 00:26:13;;;;;;;0.10;0.10;;;;;;;13.13;100.00;99930.19;5013554;28;20234;-77
2023/04/23 00:28:40;;;;;;;0.28;0.28;;;;;;;13.12;100.00;99936.38;5009863;28;20258;-76
2023/04/23 00:31:07;;;;;;;0.10;0.10;;;;;;;13.14;100.00;99944.34;5011209;28;20255;-77
2023/04/23 00:33:35;;;;;;;0.30;0.30;;;;;;;13.14;100.00;99947.88;5011849;28;20261;-77
2023/04/23 00:36:03;;;;;;;0.30;0.30;;;;;;;13.08;100.00;99949.72;5013100;28;20757;-76
2023/04/23 00:38:30;;;;;;;0.10;0.10;;;;;;;13.04;100.00;99961.25;5014880;28;20247;-76
2023/04/23 00:40:57;;;;;;;0.10;0.10;;;;;;;13.08;100.00;99970.94;5010201;28;20270;-77
2023/04/23 00:43:25;;;;;;;0.00;0.00;;;12.70;99.90;;;12.99;100.00;99971.00;4991776;28;20262;-77
2023/04/23 00:45:53;;;;;;;0.10;0.10;;;;;;;12.97;100.00;99986.03;5013776;28;20319;-77
2023/04/23 00:48:20;;;;;;;0.10;0.10;;;;;;;12.99;100.00;100003.72;5008604;28;20231;-77
2023/04/23 00:50:48;;;;;;;0.10;0.10;;;;;;;13.06;100.00;100009.91;5034671;28;20331;-77
2023/04/23 00:53:15;;;;;;;0.10;0.10;;;;;;;13.08;100.00;100013.41;5020613;28;20244;-77
2023/04/23 00:55:42;;;;;;;0.20;0.20;;;;;;;13.07;100.00;100017.84;5011096;28;20238;-76
2023/04/23 00:58:10;;;;;;;0.10;0.10;;;;;;;13.08;100.00;100021.38;5001298;28;20308;-77
2023/04/23 01:00:45;;;;;;;0.10;0.10;;;12.80;99.90;;;13.09;100.00;100023.13;5016853;28;20266;-76
2023/04/23 01:03:12;;;;;;;0.10;0.10;;;;;;;13.08;100.00;100016.06;5009031;28;20230;-77
2023/04/23 01:05:41;;;;;;;0.10;0.10;;;12.80;99.90;;;13.08;100.00;100010.75;5013482;28;20231;-76
2023/04/23 01:08:15;;;;;;;0.10;0.10;;;12.80;99.90;;;13.09;100.00;100008.09;5013602;28;20294;-77
2023/04/23 01:10:44;;;;;;;0.10;0.10;;;12.80;99.90;;;13.06;100.00;100007.25;5010585;28;20294;-76
2023/04/23 01:13:12;;;;;;;0.10;0.10;;;12.80;99.90;;;13.03;100.00;100007.25;5011652;28;20240;-76
2023/04/23 01:15:40;;;;;;;0.10;0.10;;;;;;;13.02;100.00;100000.19;5016947;28;20227;-77
2023/04/23 01:18:08;;;;;;;0.10;0.10;;;12.80;99.90;;;12.99;100.00;100011.69;5012564;28;20227;-77
2023/04/23 01:20:36;;;;;;;0.10;0.10;;;;;;;12.95;100.00;100012.59;5011990;28;20258;-76
2023/04/23 01:23:04;;;;;;;0.10;0.10;;;;;;;12.94;100.00;100013.50;5015386;28;20322;-77
2023/04/23 01:25:31;;;;;;;0.00;0.00;;;;;;;12.94;100.00;100008.19;5009412;28;20228;-77
2023/04/23 01:27:59;;;;;;;0.10;0.10;;;;;;;12.93;100.00;100021.47;5012704;28;20301;-77
2023/04/23 01:30:27;;;;;;;0.00;0.00;;;;;;;12.94;100.00;100023.22;5015025;28;20244;-75
2023/04/23 01:32:55;;;;;;;0.10;0.10;;;12.70;99.90;;;12.93;100.00;100021.47;5012742;28;20769;-75
2023/04/23 01:35:23;;;;;;;0.10;0.10;;;12.60;99.90;;;12.87;100.00;100022.38;5021808;28;20239;-78
2023/04/23 01:37:51;;;;;;;0.10;0.10;;;12.60;99.90;;;12.85;100.00;100021.50;4998966;28;20240;-78
2023/04/23 01:40:19;;;;;;;0.00;0.00;;;12.60;99.90;;;12.86;100.00;100030.34;5011465;28;20242;-78
2023/04/23 01:42:50;;;;;;;0.00;0.00;;;12.60;99.90;;;12.86;100.00;100039.19;5000675;28;20246;-77
2023/04/23 01:45:20;;;;;;;0.10;0.10;;;;;;;12.80;100.00;100047.19;5011083;28;20265;-77
2023/04/23 01:47:47;;;;;;;0.10;0.10;;;;;;;12.76;100.00;100049.00;5007440;28;20311;-78
2023/04/23 01:50:15;;;;;;;0.10;0.10;;;;;;;12.68;100.00;100055.22;5012530;28;20236;-78
2023/04/23 01:52:44;;;;;;;0.10;0.10;;;;;;;12.64;100.00;100072.06;5008516;28;20235;-78
2023/04/23 01:55:13;;;;;;;0.10;0.10;;;;;;;12.61;100.00;100085.34;5009253;28;20255;-76
2023/04/23 01:57:40;;;;;;;0.10;0.10;;;;;;;12.64;100.00;100103.88;5010317;28;20290;-76
2023/04/23 02:00:10;;;;;;;0.10;0.10;;;12.40;99.90;;;12.62;100.00;100124.25;4998238;28;20283;-76
2023/04/23 02:02:39;;;;;;;0.10;0.10;;;12.40;99.90;;;12.63;100.00;100131.31;5013410;28;20328;-76
2023/04/23 02:05:17;;;;;;;0.10;0.10;;;12.40;99.90;;;12.63;100.00;100131.31;5007476;28;20223;-78
2023/04/23 02:07:49;;;;;;;0.10;0.10;;;12.40;99.90;;;12.64;100.00;100128.66;5013912;28;20255;-79
2023/04/23 02:10:17;;;;;;;0.10;0.10;;;;;;;12.66;100.00;100116.25;5011446;28;20271;-78
2023/04/23 02:12:45;;;;;;;0.10;0.10;;;12.50;99.90;;;12.69;100.00;100099.44;5007788;28;20243;-79
2023/04/23 02:15:18;;;;;;;0.10;0.10;;;12.40;99.90;;;12.60;100.00;100089.75;5009033;28;20322;-79
2023/04/23 02:17:46;;;;;;;0.10;0.10;;;;;;;12.61;100.00;100088.00;5011222;28;20270;-78
2023/04/23 02:20:13;;;;;;;0.10;0.10;;;;;;;12.57;100.00;100079.16;5011102;28;20235;-78
2023/04/23 02:22:41;;;;;;;0.00;0.00;;;;;;;12.55;100.00;100064.16;5010254;28;20243;-79
2023/04/23 02:25:09;;;;;;;0.10;0.10;;;;;;;12.48;100.00;100064.19;5019985;28;20564;-78
2023/04/23 02:27:36;;;;;;;0.47;0.40;;;12.20;99.90;;;12.43;100.00;100054.47;5007514;28;20315;-78
2023/04/23 02:30:07;;;;;;;0.10;0.10;;;12.20;99.90;;;12.39;100.00;100050.97;5006921;28;20716;-78
2023/04/23 02:32:36;;;;;;;0.10;0.10;;;12.20;99.90;;;12.39;100.00;100042.13;5004579;28;20306;-78
2023/04/23 02:35:05;;;;;;;0.10;0.10;;;;;;;12.43;100.00;100041.22;5008277;28;20235;-78
2023/04/23 02:37:33;;;;;;;0.10;0.10;;;;;;;12.45;100.00;100024.41;5009235;28;20232;-79
2023/04/23 02:40:00;;;;;;;0.10;0.10;;;;;;;12.42;100.00;100012.94;5012100;28;20298;-78
2023/04/23 02:42:27;;;;;;;0.10;0.10;;;;;;;12.45;100.00;99995.25;5012679;28;20642;-78
2023/04/23 02:44:55;;;;;;;0.10;0.10;;;;;;;12.40;100.00;99994.38;5005734;28;20267;-79
2023/04/23 02:47:22;;;;;;;0.10;0.10;;;;;;;12.37;100.00;99981.13;5010099;28;20322;-78
2023/04/23 02:49:49;;;;;;;0.10;0.10;;;;;;;12.30;100.00;99992.66;5023731;28;20227;-79
2023/04/23 02:52:17;;;;;;;0.10;0.10;;;;;;;12.21;100.00;100016.56;5014902;28;20235;-78
2023/04/23 02:54:44;;;;;;;0.10;0.10;;;;;;;12.12;100.00;100027.22;5009594;28;20319;-78
2023/04/23 02:57:14;;;;;;;0.10;0.10;;;;;;;12.08;100.00;100023.69;5015554;28;20259;-78
2023/04/23 02:59:42;;;;;;;0.10;0.10;;;11.70;99.90;;;12.00;100.00;100040.50;5012000;28;20242;-79
2023/04/23 03:02:09;;;;;;;0.10;0.10;;;;;;;11.95;100.00;100063.50;5015782;28;20232;-78
2023/04/23 03:04:37;;;;;;;0.00;0.00;;;;;;;11.89;100.00;100100.59;5010535;28;20254;-78
2023/04/23 03:07:05;;;;;;;0.10;0.10;;;;;;;11.78;100.00;100124.47;5014847;28;20270;-78
2023/04/23 03:09:32;;;;;;;0.10;0.10;;;;;;;11.73;100.00;100150.91;5014436;28;20239;-78
2023/04/23 03:12:00;;;;;;;0.10;0.10;;;;;;;11.65;100.00;100172.94;5010442;28;20282;-78
2023/04/23 03:14:28;;;;;;;0.10;0.10;;;;;;;11.64;100.00;100200.31;5004321;28;20232;-78
2023/04/23 03:16:55;;;;;;;0.10;0.10;;;;;;;11.56;100.00;100213.56;5005175;28;20274;-78
2023/04/23 03:19:22;;;;;;;0.10;0.10;;;;;;;11.54;100.00;100221.50;5012620;28;20740;-78
2023/04/23 03:21:50;;;;;;;0.00;0.00;;;;;;;11.51;100.00;100228.56;5006241;28;20274;-76
2023/04/23 03:24:17;;;;;;;0.20;0.20;;;;;;;11.48;100.00;100233.84;5004789;28;20332;-76
2023/04/23 03:26:44;;;;;;;0.20;0.20;;;;;;;11.50;100.00;100234.72;5006700;28;20315;-75
2023/04/23 03:29:12;;;;;;;0.10;0.10;;;;;;;11.53;100.00;100238.28;5008514;28;20326;-76
2023/04/23 03:31:39;;;;;;;0.10;0.10;;;;;;;11.49;100.00;100233.84;5008599;28;20327;-76
2023/04/23 03:34:07;;;;;;;0.10;0.10;;;;;;;11.50;100.00;100230.31;5008051;28;20243;-77
2023/04/23 03:36:34;;;;;;;0.10;0.10;;;;;;;11.52;100.00;100223.25;5013221;28;20223;-77
2023/04/23 03:39:02;;;;;;;0.10;0.10;;;;;;;11.50;100.00;100217.09;5012123;28;20259;-77
2023/04/23 03:41:29;;;;;;;0.10;0.10;;;;;;;11.50;100.00;100214.44;5014031;28;20288;-77
2023/04/23 03:43:56;;;;;;;0.10;0.10;;;;;;;11.42;100.00;100205.59;5010463;28;20242;-75
2023/04/23 03:46:24;;;;;;;0.10;0.10;;;;;;;11.37;100.00;100210.00;5005844;28;20342;-77
2023/04/23 03:48:51;;;;;;;0.10;0.10;;;;;;;11.38;100.00;100218.81;5013495;28;20293;-77
2023/04/23 03:51:19;;;;;;;0.10;0.10;;;;;;;11.34;100.00;100219.69;5014369;28;20283;-77
2023/04/23 03:53:46;;;;;;;0.05;0.05;;;;;;;11.28;100.00;100212.63;5011771;28;20637;-77
2023/04/23 03:56:13;;;;;;;0.10;0.10;;;;;;;11.27;100.00;100218.78;5011434;28;20346;-77
2023/04/23 03:58:41;;;;;;;0.10;0.10;;;;;;;11.23;100.00;100225.84;5018508;28;20594;-77
2023/04/23 04:01:08;;;;;;;0.10;0.10;;;;;;;11.26;100.00;100224.09;5011468;28;20306;-77
2023/04/23 04:03:36;;;;;;;0.10;0.10;;;;;;;11.25;100.00;100230.25;5011626;28;20721;-77
2023/04/23 04:06:03;;;;;;;0.10;0.10;;;11.00;99.90;;;11.23;100.00;100235.53;5012348;28;20228;-77
2023/04/23 04:08:31;;;;;;;0.10;0.10;;;;;;;11.25;100.00;100236.44;5013014;28;20243;-77
2023/04/23 04:10:58;;;;;;;0.00;0.00;;;;;;;11.25;100.00;100243.50;5016492;28;20263;-77
2023/04/23 04:13:26;;;;;;;0.10;0.10;;;;;;;11.25;100.00;100254.97;5016509;28;20263;-77
2023/04/23 04:15:53;;;;;;;0.43;0.43;;;;;;;11.30;100.00;100257.63;5015152;28;20513;-76
2023/04/23 04:18:20;;;;;;;0.10;0.10;;;;;;;11.34;100.00;100262.06;5011000;28;20317;-77
2023/04/23 04:20:50;;;;;;;0.30;0.30;;;;;;;11.33;100.00;100271.75;5016754;28;20236;-77
2023/04/23 04:23:17;;;;;;;0.10;0.10;;;;;;;11.35;100.00;100272.66;5009897;28;20251;-76
2023/04/23 04:25:45;;;;;;;0.10;0.10;;;;;;;11.37;100.00;100283.25;5017252;28;20232;-77
2023/04/23 04:28:13;;;;;;;0.10;0.10;;;;;;;11.34;100.00;100281.47;5013098;28;20259;-76
2023/04/23 04:30:41;;;;;;;0.10;0.10;;;;;;;11.34;100.00;100288.53;5012359;28;20248;-77
2023/04/23 04:33:08;;;;;;;0.00;0.00;;;;;;;11.33;100.00;100289.41;5009162;28;20246;-76
2023/04/23 04:35:36;;;;;;;0.10;0.10;;;;;;;11.32;100.00;100287.63;5010813;28;20256;-77
2023/04/23 04:38:03;;;;;;;0.10;0.10;;;;;;;11.30;100.00;100294.69;5008250;28;20699;-77
2023/04/23 04:40:30;;;;;;;0.70;0.70;;;;;;;11.24;100.00;100287.59;5021210;28;20262;-77
2023/04/23 04:42:59;;;;;;;0.10;0.10;;;;;;;11.21;100.00;100296.41;4999929;28;20267;-77
2023/04/23 04:45:26;;;;;;;0.10;0.10;;;;;;;11.20;100.00;100288.47;4990711;28;20236;-76
2023/04/23 04:47:53;;;;;;;0.10;0.10;;;;;;;11.23;100.00;100291.13;4991812;28;20227;-77
2023/04/23 04:50:21;;;;;;;0.10;0.10;;;;;;;11.29;100.00;100292.91;5001750;28;20345;-77
2023/04/23 04:52:48;;;;;;;0.10;0.10;;;;;;;11.29;100.00;100293.81;4999332;28;20310;-77
2023/04/23 04:55:16;;;;;;;0.20;0.20;;;;;;;11.31;100.00;100291.16;4996587;28;20232;-77
2023/04/23 04:57:43;;;;;;;0.10;0.10;;;;;;;11.31;100.00;100304.41;4999296;28;20240;-77
2023/04/23 05:00:29;;;;;;;0.10;0.10;;;11.10;99.90;;;11.34;100.00;100307.06;4986291;28;20317;-75
2023/04/23 05:02:57;;;;;;;0.10;0.10;;;11.20;99.90;;;11.42;100.00;100305.31;5014029;28;20322;-77
2023/04/23 05:05:25;;;;;;;0.65;0.65;;;;;;;11.42;100.00;100310.63;5010402;28;20240;-76
2023/04/23 05:07:53;;;;;;;0.10;0.10;;;11.20;99.90;;;11.45;100.00;100315.94;5010906;28;20259;-76
2023/04/23 05:10:21;;;;;;;0.10;0.10;;;;;;;11.46;100.00;100325.63;4995610;28;20380;-77
2023/04/23 05:12:50;;;;;;;0.10;0.10;;;;;;;11.44;100.00;100322.09;5015682;28;20249;-77
2023/04/23 05:15:18;;;;;;;0.10;0.10;;;;;;;11.42;100.00;100321.22;5008402;28;20224;-77
2023/04/23 05:17:46;;;;;;;0.10;0.10;;;;;;;11.40;100.00;100329.16;5013991;28;20255;-77
2023/04/23 05:20:13;;;;;;;0.13;0.13;;;;;;;11.46;100.00;100331.81;5009714;28;20228;-76
2023/04/23 05:22:41;;;;;;;0.10;0.10;;;11.20;99.90;;;11.51;100.00;100334.50;5008392;28;20310;-77
2023/04/23 05:25:13;;;;;;;0.10;0.10;;;11.30;99.90;;;11.51;100.00;100338.03;5009889;28;20250;-78
2023/04/23 05:27:40;;;;;;;0.03;0.03;;;;;;;11.52;100.00;100347.72;5019115;28;20250;-78
2023/04/23 05:30:09;;;;;;;1.38;1.27;;;11.30;99.90;;;11.58;100.00;100341.56;5015579;28;20228;-79
2023/04/23 05:32:37;;;;;;;0.10;0.10;;;;;;;11.55;100.00;100353.03;5013080;28;20227;-78
2023/04/23 05:35:05;;;;;;;0.00;0.00;;;11.30;99.90;;;11.53;100.00;100356.56;5012626;28;20914;-79
2023/04/23 05:37:33;;;;;;;0.10;0.10;;;;;;;11.51;100.00;100358.31;5010315;28;20273;-77
2023/04/23 05:40:01;;;;;;;0.10;0.10;;;;;;;11.50;100.00;100359.19;5009919;28;20266;-76
2023/04/23 05:42:29;;;;;;;0.40;0.40;;;;;;;11.51;100.00;100359.19;5013974;28;20243;-78
2023/04/23 05:44:56;;;;;;;0.10;0.10;;;;;;;11.51;100.00;100367.16;5009659;28;20323;-77
2023/04/23 05:47:23;;;;;;;0.10;0.10;;;11.20;99.90;;;11.47;100.00;100357.41;5011998;28;20286;-78
2023/04/23 05:49:51;;;;;;;0.17;0.17;;;;;;;11.41;100.00;100354.75;5010170;28;20243;-77
2023/04/23 05:52:18;;;;;;;0.20;0.20;;;;;;;11.45;100.00;100368.88;5011056;28;20289;-78
2023/04/23 05:54:46;;;;;;;0.10;0.10;;;;;;;11.55;100.00;100373.34;5009867;28;20259;-77
2023/04/23 05:57:13;;;;;;;0.25;0.25;;;;;;;11.64;100.00;100380.44;5000655;28;20653;-78
2023/04/23 05:59:41;;;;;;;0.28;0.28;;;;;;;11.66;100.00;100386.63;5021781;28;20231;-77
2023/04/23 06:02:09;;;;;;;0.00;0.00;;;11.40;99.90;;;11.73;100.00;100384.03;5026459;28;20235;-78
2023/04/23 06:04:37;;;;;;;0.10;0.10;;;;;;;11.84;100.00;100390.28;5012395;28;20227;-80
2023/04/23 06:07:05;;;;;;;0.10;0.10;;;11.60;99.90;;;11.84;100.00;100387.66;5011771;28;20231;-78
2023/04/23 06:09:33;;;;;;;0.40;0.40;;;;;;;11.97;100.00;100392.97;5013988;28;20344;-79
2023/04/23 06:12:02;;;;;;;0.10;0.10;;;11.70;99.90;;;12.02;100.00;100393.88;5010084;28;20235;-80
2023/04/23 06:14:29;;;;;;;0.10;0.10;;;;;;;12.16;100.00;100392.13;5045899;28;20227;-81
2023/04/23 06:16:56;;;;;;;0.00;0.00;;;;;;;12.26;100.00;100385.97;5019366;28;20236;-81
2023/04/23 06:19:26;;;;;;;0.10;0.10;;;;;;;12.38;100.00;100393.94;5012447;28;20236;-81
2023/04/23 06:21:53;;;;;;;0.10;0.10;;;;;;;12.45;100.00;100387.75;5015464;28;20255;-80
2023/04/23 06:24:21;;;;;;;0.10;0.10;;;;;;;12.38;100.00;100370.06;5012588;28;20239;-79
2023/04/23 06:26:48;;;;;;;0.10;0.10;;;;;;;12.50;100.00;100366.53;5010993;28;20239;-79
2023/04/23 06:29:16;;;;;;;0.10;0.10;;;;;;;12.59;100.00;100368.31;5008212;28;20231;-79
2023/04/23 06:31:43;;;;;;;0.10;0.10;;;;;;;12.60;100.00;100352.38;5010040;28;20243;-79
2023/04/23 06:34:11;;;;;;;0.00;0.00;;;;;;;12.68;100.00;100328.50;5008988;28;20240;-78
2023/04/23 06:36:38;;;;;;;0.08;0.08;;;;;;;12.78;100.00;100312.56;5009398;28;20224;-79
2023/04/23 06:39:06;;;;;;;0.10;0.10;;;;;;;12.94;100.00;100291.28;5008920;28;20231;-79
2023/04/23 06:41:34;;;;;;;0.10;0.10;;;;;;;13.13;100.00;100293.03;5013190;28;20323;-79
2023/04/23 06:46:55;;;;;;;0.10;0.10;;;;;;;13.25;100.00;100261.16;4967230;28;20240;-78
2023/04/23 06:49:22;;;;;;;0.10;0.10;;;;;;;13.15;100.00;100240.81;4970597;28;20312;-79
2023/04/23 06:51:49;;;;;;;0.10;0.10;;;;;;;13.32;100.00;100220.41;4969171;28;20244;-80
2023/04/23 06:54:17;;;;;;;0.70;0.40;;;12.90;99.90;;;13.16;100.00;100205.41;4939904;28;20606;-80
2023/04/23 06:56:44;;;;;;;0.20;0.20;;;;;;;13.39;100.00;100202.66;4965393;28;20594;-80
2023/04/23 06:59:12;;;;;;;0.10;0.10;;;;;;;13.61;100.00;100206.03;4961773;28;20257;-79
2023/04/23 07:01:39;;;;;;;0.40;0.40;;;;;;;13.50;100.00;100192.84;4963582;28;20323;-78
2023/04/23 07:04:07;;;;;;;0.88;0.82;;;;;;;13.45;100.00;100178.69;4951156;28;20276;-78
2023/04/23 07:06:35;;;;;;;0.25;0.25;;;;;;;13.74;100.00;100183.81;4945783;28;20665;-78
2023/04/23 07:09:03;;;;;;;0.08;0.08;;;;;;;13.83;100.00;100166.91;4949009;28;20328;-78
2023/04/23 07:11:33;;;;;;;0.10;0.10;;;;;;;13.91;100.00;100141.13;4964506;28;20260;-80
2023/04/23 07:14:01;;;;;;;0.10;0.10;;;;;;;14.30;100.00;100147.81;4949344;28;20238;-80
2023/04/23 07:16:32;;;;;;;0.10;0.10;;;;;;;14.12;100.00;100118.78;4947732;28;20267;-80
2023/04/23 07:19:01;;;;;;;0.10;0.10;;;13.90;99.90;;;14.26;100.00;100098.22;4968110;28;20647;-80
2023/04/23 07:21:28;;;;;;;0.10;0.10;;;;;;;14.54;100.00;100090.84;4951176;28;20288;-80
2023/04/23 07:24:07;;;;;;;0.10;0.10;;;14.30;99.90;;;14.55;100.00;100061.56;4954940;28;20324;-80
2023/04/23 07:26:35;;;;;;;0.10;0.10;;;14.00;99.90;;;14.32;100.00;100019.28;4967594;28;20327;-80
2023/04/23 07:29:05;;;;;;;0.10;0.10;;;14.00;99.90;;;14.47;100.00;99990.72;4945676;28;20232;-81
2023/04/23 07:31:33;;;;;;;0.00;0.00;;;;;;;14.34;100.00;99928.81;4995603;23;20232;-74
2023/04/23 07:34:00;;;;;;;0.10;0.10;;;;;;;14.36;100.00;99864.03;4986200;28;20260;-74
2023/04/23 07:36:27;;;;;;;0.10;0.10;;;;;;;14.54;100.00;99830.97;4985498;28;20280;-76
2023/04/23 07:38:55;;;;;;;0.10;0.10;;;;;;;15.10;100.00;99830.88;4981545;28;20310;-77
2023/04/23 07:41:22;;;;;;;0.10;0.10;;;;;;;15.14;100.00;99828.13;4984031;28;20253;-78
2023/04/23 07:43:50;;;;;;;0.10;0.10;;;;;;;15.10;100.00;99831.75;4984658;28;20343;-78
2023/04/23 07:46:18;;;;;;;0.10;0.10;;;;;;;14.93;100.00;99801.91;4958391;28;20319;-78
2023/04/23 07:48:46;;;;;;;0.00;0.00;;;;;;;14.97;100.00;99796.50;4995065;28;20239;-76
2023/04/23 07:51:13;;;;;;;0.13;0.13;;;;;;;15.14;100.00;99793.50;4992394;28;20248;-76
2023/04/23 07:53:41;;;;;;;0.00;0.00;;;;;;;15.04;100.00;99755.53;4993705;28;20235;-76
2023/04/23 07:56:09;;;;;;;0.00;0.00;;;;;;;14.95;100.00;99737.06;4985862;28;20655;-76
2023/04/23 07:58:37;;;;;;;0.10;0.10;;;;;;;15.44;100.00;99772.47;4981471;28;20687;-75
2023/04/23 08:01:05;;;;;;;0.10;0.10;;;;;;;15.38;100.00;99779.69;4978347;28;20712;-75
2023/04/23 08:03:33;;;;;;;0.10;0.10;;;;;;;15.28;100.00;99777.25;4991900;28;20302;-76
2023/04/23 08:06:01;;;;;;;0.10;0.10;;;;;;;15.53;100.00;99799.78;4979069;28;20295;-76
2023/04/23 08:08:28;;;;;;;0.00;0.00;;;;;;;15.80;100.00;99811.72;4976645;28;20594;-76
2023/04/23 08:10:56;;;;;;;0.00;0.00;;;;;;;15.87;100.00;99792.00;4988286;28;20263;-76
2023/04/23 08:13:23;;;;;;;0.00;0.00;;;;;;;15.98;100.00;99781.09;4990735;28;20260;-77
2023/04/23 08:15:51;;;;;;;0.00;0.00;;;;;;;15.68;100.00;99713.34;4978429;28;20259;-77
2023/04/23 08:18:18;;;;;;;0.25;0.25;;;;;;;15.51;100.00;99702.13;4989157;28;20250;-77
2023/04/23 08:20:46;;;;;;;0.00;0.00;;;;;;;15.54;100.00;99662.09;4986191;28;20323;-78
2023/04/23 08:23:13;;;;;;;0.20;0.20;;;;;;;15.74;100.00;99649.25;4983693;28;20233;-77
2023/04/23 08:25:41;;;;;;;0.22;0.22;;;;;;;15.07;100.00;99581.50;4989578;28;20248;-78
2023/04/23 08:28:08;;;;;;;0.00;0.00;;;;;;;15.68;100.00;99630.72;4989418;28;20279;-77
2023/04/23 08:30:35;;;;;;;0.10;0.10;;;;;;;16.06;100.00;99640.44;4989132;28;20315;-76
2023/04/23 08:33:03;;;;;;;0.08;0.08;;;;;;;16.59;100.00;99680.81;4979836;28;20335;-75
2023/04/23 08:35:30;;;;;;;0.00;0.00;;;;;;;15.90;100.00;99602.63;4985559;28;20275;-73
2023/04/23 08:37:57;;;;;;;0.00;0.00;;;;;;;16.46;100.00;99648.25;4986434;28;20233;-73
2023/04/23 08:40:29;;;;;;;0.10;0.10;;;15.90;99.90;;;16.13;100.00;99586.00;4991205;28;20292;-76
2023/04/23 08:43:01;;;;;;;0.10;0.10;;;16.00;99.90;;;16.25;100.00;99591.00;4990256;28;20264;-76
2023/04/23 08:45:31;;;;;;;0.10;0.10;;;16.00;99.90;;;16.43;100.00;99602.09;4990078;28;20700;-76
2023/04/23 08:48:00;;;;;;;0.00;0.00;;;16.40;99.90;;;16.88;100.00;99600.78;4989411;28;20294;-76
2023/04/23 08:50:29;;;;;;;0.00;0.00;;;16.50;99.90;;;16.93;100.00;99564.16;4989900;28;20775;-75
2023/04/23 08:52:57;;;;;;;0.15;0.15;;;;;;;17.19;100.00;99549.13;4992718;28;20722;-76
2023/04/23 08:55:25;;;;;;;0.10;0.10;;;;;;;16.85;100.00;99504.75;4982469;28;20302;-75
2023/04/23 08:57:53;;;;;;;0.00;0.00;;;;;;;17.08;100.00;99516.53;4987000;28;20327;-74
2023/04/23 09:00:21;;;;;;;0.00;0.00;;;17.00;99.90;;;17.51;100.00;99522.22;4983938;28;20232;-75
2023/04/23 09:02:49;;;;;;;0.00;0.00;;;;;;;17.50;100.00;99475.03;4983860;28;20240;-74
2023/04/23 09:05:18;;;;;;;0.10;0.10;;;;;;;17.12;100.00;99454.06;4984144;28;20240;-74
2023/04/23 09:07:45;;;;;;;0.00;0.00;;;;;;;17.73;100.00;99505.47;4986847;28;20237;-74
2023/04/23 09:10:13;;;;;;;0.00;0.00;;;;;;;17.43;100.00;99412.00;4992727;28;20264;-80
2023/04/23 09:12:45;;;;;;;0.00;0.00;;;;;;;17.31;100.00;99385.72;4989419;28;20243;-75
2023/04/23 09:15:12;;;;;;;0.00;0.00;;;;;;;17.56;100.00;99416.00;4988353;28;20243;-76
2023/04/23 09:17:45;;;;;;;0.00;0.00;;;17.00;99.90;;;17.19;100.00;99362.09;4971190;28;20236;-76
2023/04/23 09:20:14;;;;;;;0.00;0.00;;;;;;;17.47;100.00;99408.31;4987800;28;20240;-76
2023/04/23 09:22:51;;;;;;;3.92;0.63;;;16.80;99.90;;;17.13;100.00;99387.22;4990445;28;20235;-78
2023/04/23 09:25:21;;;;;;;0.00;0.00;;;16.90;99.90;;;17.15;100.00;99374.69;4972238;28;20228;-76
2023/04/23 09:27:50;;;;;;;0.00;0.00;;;17.10;99.90;;;17.34;100.00;99387.41;4991032;28;20291;-78
2023/04/23 09:30:19;;;;;;;0.22;0.22;;;17.10;99.90;;;17.23;100.00;99369.97;4956292;28;20243;-78
2023/04/23 09:32:46;;;;;;;0.00;0.00;;;17.00;99.90;;;17.14;100.00;99369.41;4990161;28;20270;-77
2023/04/23 09:35:20;;;;;;;0.20;0.20;;;16.80;99.90;;;17.08;100.00;99364.28;4988224;28;20232;-73
2023/04/23 09:37:51;;;;;;;0.00;0.00;;;14.70;99.90;;;16.79;100.00;99334.06;4991033;28;20240;-78
2023/04/23 09:40:22;;;;;;;0.00;0.00;;;16.90;99.90;;;17.21;100.00;99377.16;4988431;28;20245;-78
2023/04/23 09:42:53;;;;;;;0.05;0.05;;;17.00;99.90;;;17.22;100.00;99338.81;4991035;28;20250;-81
2023/04/23 09:45:21;;;;;;;0.00;0.00;;;;;;;17.09;100.00;99318.81;4970582;28;20240;-76
2023/04/23 09:47:48;;;;;;;0.00;0.00;;;;;;;17.38;100.00;99344.50;4988325;28;20306;-77
2023/04/23 09:50:16;;;;;;;0.10;0.10;;;;;;;17.67;100.00;99361.31;4991628;28;20751;-75
2023/04/23 09:52:43;;;;;;;0.00;0.00;;;;;;;17.81;100.00;99354.50;4994014;28;20263;-74
2023/04/23 09:55:11;;;;;;;0.00;0.00;;;;;;;17.94;100.00;99336.19;4976981;28;20239;-75
2023/04/23 09:57:40;;;;;;;0.05;0.05;;;17.20;99.90;;;17.41;100.00;99287.38;4991403;28;20239;-74
2023/04/23 10:00:19;;;;;;;0.00;0.00;;;17.10;99.90;;;17.17;100.00;99270.47;4979133;28;20260;-75
2023/04/23 10:02:49;;;;;;;0.00;0.00;;;17.00;99.90;;;17.30;100.00;99303.81;4982912;28;20240;-76
2023/04/23 10:05:20;;;;;;;0.00;0.00;;;17.10;99.90;;;17.29;100.00;99253.97;4987098;28;20235;-75
2023/04/23 10:07:56;;;;;;;0.00;0.00;;;17.20;99.90;;;17.30;100.00;99230.78;4981891;28;20244;-74
2023/04/23 10:10:24;;;;;;;0.08;0.08;;;;;;;17.14;100.00;99193.09;4970572;28;20283;-75
2023/04/23 10:12:55;;;;;;;0.00;0.00;;;17.10;99.90;;;17.33;100.00;99203.97;4991031;28;20252;-76
2023/04/23 10:15:25;;;;;;;0.00;0.00;;;17.30;99.90;;;17.64;100.00;99209.88;4987712;28;20240;-76
2023/04/23 10:18:03;;;;;;;0.00;0.00;;;17.40;99.90;;;17.72;100.00;99161.47;4987039;28;20235;-74
2023/04/23 10:20:30;;;;;;;0.00;0.00;;;;;;;17.74;100.00;99141.75;4984936;28;20751;-76
2023/04/23 10:22:59;;;;;;;0.10;0.10;;;17.30;99.90;;;17.43;100.00;99110.03;4978639;28;20244;-76
2023/04/23 10:25:27;;;;;;;0.00;0.00;;;17.30;99.90;;;17.76;100.00;99179.13;4990570;28;20232;-76
2023/04/23 10:27:55;;;;;;;0.00;0.00;;;;;;;17.35;100.00;99129.97;4992984;28;20236;-78
2023/04/23 10:30:22;;;;;;;0.35;0.35;;;;;;;17.10;100.00;99106.00;4968744;28;20283;-77
2023/04/23 10:32:50;;;;;;;0.05;0.05;;;;;;;17.14;100.00;99088.91;4971536;28;20232;-75
2023/04/23 10:35:18;;;;;;;0.00;0.00;;;;;;;16.84;100.00;99049.09;4970334;28;20232;-76
2023/04/23 10:37:47;;;;;;;0.00;0.00;;;17.00;99.90;;;17.50;100.00;99127.53;4981014;28;20232;-77
2023/04/23 10:40:20;;;;;;;0.00;0.00;;;17.30;99.90;;;17.77;100.00;99149.66;4967977;28;20235;-77
2023/04/23 10:42:48;;;;;;;0.60;0.25;;;;;;;17.99;100.00;99122.91;4972914;28;20236;-77
2023/04/23 10:45:18;;;;;;;0.15;0.15;;;17.90;99.90;;;18.50;100.00;99165.31;4982658;28;20307;-77
2023/04/23 10:47:48;;;;;;;0.10;0.10;;;;;;;18.79;100.00;99121.22;4981353;28;20307;-75
2023/04/23 10:50:24;;;;;;;0.22;0.22;;;18.50;99.90;;;18.99;100.00;99096.19;4980722;28;20239;-75
2023/04/23 10:52:53;;;;;;;0.15;0.15;;;18.30;99.90;;;18.67;100.00;99044.13;4980223;28;20282;-75
2023/04/23 10:55:23;;;;;;;0.00;0.00;;;18.60;99.90;;;19.08;100.00;99073.47;4977146;28;20228;-76
2023/04/23 10:58:03;;;;;;;0.00;0.00;;;18.20;99.90;;;18.60;100.00;99001.59;4975366;28;20273;-76
2023/04/23 11:00:44;;;;;;;0.30;0.30;;;18.30;99.90;;;18.67;100.00;98987.91;4974725;28;20235;-77
2023/04/23 11:03:34;;;;;;;0.00;0.00;;;18.40;99.90;;;18.73;100.00;98994.78;4977822;28;20228;-76
2023/04/23 11:06:06;;;;;;;0.10;0.10;;;18.30;99.90;;;18.48;100.00;98950.38;4988337;28;20744;-75